createdAt,value
2023-05-04T00:02:02.350Z,2.17
2023-05-04T00:07:07.275Z,2.20
2023-05-04T00:17:14.264Z,2.42
2023-05-04T00:22:19.142Z,2.90
2023-05-04T00:32:25.916Z,2.60
2023-05-04T00:37:30.830Z,1.98
2023-05-04T00:47:37.791Z,2.45
2023-05-04T00:52:45.209Z,2.65
2023-05-04T00:57:50.493Z,2.47
2023-05-04T01:02:54.115Z,2.28
2023-05-04T01:08:03.449Z,2.50
2023-05-04T01:13:11.111Z,2.50
2023-05-04T01:18:14.775Z,2.40
2023-05-04T01:23:19.724Z,2.47
2023-05-04T01:33:33.421Z,2.90
2023-05-04T01:43:41.770Z,2.80
2023-05-04T01:48:45.199Z,2.85
2023-05-04T01:53:50.110Z,2.53
2023-05-04T02:03:56.873Z,2.78
2023-05-04T02:09:01.921Z,2.45
2023-05-04T02:14:05.608Z,2.05
2023-05-04T02:19:09.200Z,2.22
2023-05-04T02:24:14.410Z,2.50
2023-05-04T02:29:17.988Z,2.42
2023-05-04T02:34:21.708Z,2.60
2023-05-04T02:39:26.693Z,2.55
2023-05-04T02:49:33.340Z,2.30
2023-05-04T02:54:39.298Z,2.92
2023-05-04T02:59:42.787Z,2.70
2023-05-04T03:04:46.268Z,3.83
2023-05-04T03:09:51.240Z,2.83
2023-05-04T03:19:57.902Z,2.50
2023-05-04T03:25:02.884Z,2.03
2023-05-04T03:30:08.816Z,1.73
2023-05-04T03:35:12.943Z,1.90
2023-05-04T03:40:22.479Z,2.10
2023-05-04T03:45:28.587Z,2.15
2023-05-04T03:50:32.141Z,2.35
2023-05-04T03:55:37.320Z,2.20
2023-05-04T04:00:40.942Z,3.33
2023-05-04T04:05:44.425Z,1.63
2023-05-04T04:10:49.290Z,1.33
2023-05-04T04:15:52.861Z,1.40
2023-05-04T04:20:56.481Z,1.20
2023-05-04T04:26:01.885Z,1.60
2023-05-04T04:31:05.783Z,1.35
2023-05-04T04:36:10.631Z,1.70
2023-05-04T04:41:15.969Z,1.52
2023-05-04T04:46:19.498Z,1.58
2023-05-04T04:51:23.173Z,1.90
2023-05-04T04:56:28.204Z,1.80
2023-05-04T05:01:31.805Z,3.03
2023-05-04T05:06:35.478Z,1.20
2023-05-04T05:11:40.406Z,1.88
2023-05-04T05:16:43.915Z,1.50
2023-05-04T05:21:48.003Z,1.50
2023-05-04T05:26:53.787Z,1.40
2023-05-04T05:31:57.459Z,1.48
2023-05-04T05:37:01.137Z,1.30
2023-05-04T05:42:06.765Z,1.40
2023-05-04T05:47:10.238Z,1.20
2023-05-04T05:52:13.723Z,1.42
2023-05-04T05:57:18.597Z,1.30
2023-05-04T06:02:22.208Z,1.20
2023-05-04T06:07:26.191Z,1.55
2023-05-04T06:12:31.289Z,1.27
2023-05-04T06:17:35.036Z,1.35
2023-05-04T06:22:38.582Z,1.02
2023-05-04T06:27:43.504Z,1.50
2023-05-04T06:32:47.218Z,1.55
2023-05-04T06:43:01.173Z,1.13
2023-05-04T06:48:05.524Z,1.30
2023-05-04T06:53:10.369Z,1.35
2023-05-04T06:58:15.393Z,1.48
2023-05-04T07:03:19.060Z,1.48
2023-05-04T07:08:22.575Z,1.30
2023-05-04T07:13:27.543Z,1.00
2023-05-04T07:18:31.441Z,1.10
2023-05-04T07:23:34.921Z,1.20
2023-05-04T07:28:43.954Z,1.50
2023-05-04T07:33:47.557Z,1.20
2023-05-04T07:38:51.517Z,1.48
2023-05-04T07:43:56.628Z,1.25
2023-05-04T07:49:00.091Z,1.13
2023-05-04T07:54:03.546Z,1.17
2023-05-04T07:59:08.443Z,1.30
2023-05-04T08:04:12.022Z,1.25
2023-05-04T08:09:15.512Z,1.35
2023-05-04T08:14:20.409Z,1.33
2023-05-04T08:19:23.911Z,1.35
2023-05-04T08:24:27.416Z,1.25
2023-05-04T08:29:32.326Z,1.00
2023-05-04T08:34:36.681Z,1.45
2023-05-04T08:39:42.081Z,1.27
2023-05-04T08:44:47.276Z,1.20
2023-05-04T08:49:50.980Z,1.50
2023-05-04T08:54:56.062Z,1.30
2023-05-04T09:00:02.011Z,1.20
2023-05-04T09:05:09.557Z,1.10
2023-05-04T09:10:13.251Z,1.10
2023-05-04T09:15:19.262Z,1.00
2023-05-04T09:20:22.981Z,1.15
2023-05-04T09:25:26.513Z,1.10
2023-05-04T09:30:32.075Z,1.00
2023-05-04T09:35:35.533Z,1.27
2023-05-04T09:40:41.549Z,1.13
2023-05-04T09:45:48.345Z,0.95
2023-05-04T09:50:56.263Z,0.80
2023-05-04T09:56:11.445Z,0.90
2023-05-04T10:01:17.106Z,0.88
2023-05-04T10:06:22.600Z,1.10
2023-05-04T10:11:27.513Z,1.00
2023-05-04T10:16:45.748Z,1.10
2023-05-04T10:22:02.985Z,1.08
2023-05-04T10:27:11.555Z,0.95
2023-05-04T10:32:23.758Z,0.90
2023-05-04T10:37:27.414Z,1.30
2023-05-04T10:42:42.010Z,0.97
2023-05-04T10:53:16.955Z,0.90
2023-05-04T10:58:29.820Z,0.93
2023-05-04T11:03:42.241Z,1.00
2023-05-04T11:08:48.245Z,0.80
2023-05-04T11:13:52.006Z,1.10
2023-05-04T11:18:56.899Z,0.70
2023-05-04T11:24:02.636Z,1.02
2023-05-04T11:29:14.124Z,1.30
2023-05-04T11:34:22.356Z,0.90
2023-05-04T11:39:27.400Z,0.82
2023-05-04T11:44:31.471Z,0.98
2023-05-04T11:49:36.567Z,0.80
2023-05-04T11:54:40.138Z,1.00
2023-05-04T11:59:50.287Z,0.98
2023-05-04T12:04:55.641Z,1.02
2023-05-04T12:09:59.105Z,1.00
2023-05-04T12:15:02.559Z,1.33
2023-05-04T12:20:10.368Z,1.00
2023-05-04T12:25:13.993Z,0.70
2023-05-04T12:30:18.123Z,1.00
2023-05-04T12:35:23.233Z,1.00
2023-05-04T12:40:28.753Z,0.93
2023-05-04T12:45:32.580Z,0.95
2023-05-04T12:50:37.649Z,0.83
2023-05-04T12:55:41.379Z,1.00
2023-05-04T13:00:46.118Z,0.93
2023-05-04T13:05:51.414Z,0.80
2023-05-04T13:10:55.166Z,0.80
2023-05-04T13:15:59.052Z,0.90
2023-05-04T13:21:04.226Z,0.90
2023-05-04T13:26:07.736Z,0.95
2023-05-04T13:31:11.487Z,0.80
2023-05-04T13:36:17.286Z,1.00
2023-05-04T13:41:20.810Z,0.90
2023-05-04T13:46:24.436Z,0.90
2023-05-04T13:51:29.378Z,0.90
2023-05-04T13:56:32.890Z,0.90
2023-05-04T14:01:36.421Z,0.80
2023-05-04T14:06:41.320Z,0.87
2023-05-04T14:11:45.017Z,1.00
2023-05-04T14:16:48.532Z,0.90
2023-05-04T14:21:53.518Z,1.80
2023-05-04T14:26:57.102Z,0.80
2023-05-04T14:32:00.679Z,0.80
2023-05-04T14:37:05.654Z,4.23
2023-05-04T14:42:09.460Z,0.80
2023-05-04T14:47:13.223Z,1.00
2023-05-04T14:52:18.415Z,0.90
2023-05-04T14:57:21.890Z,0.80
2023-05-04T15:02:25.545Z,0.90
2023-05-04T15:07:30.514Z,0.83
2023-05-04T15:12:34.090Z,0.90
2023-05-04T15:17:37.666Z,0.82
2023-05-04T15:22:42.891Z,1.00
2023-05-04T15:27:46.494Z,1.02
2023-05-04T15:32:49.975Z,1.10
2023-05-04T15:37:54.927Z,1.02
2023-05-04T15:42:58.498Z,0.95
2023-05-04T15:48:02.076Z,0.93
2023-05-04T15:53:07.055Z,1.13
2023-05-04T15:58:10.769Z,1.20
2023-05-04T16:03:15.424Z,1.13
2023-05-04T16:08:20.392Z,1.17
2023-05-04T16:13:23.970Z,1.20
2023-05-04T16:18:27.536Z,1.33
2023-05-04T16:23:32.496Z,1.17
2023-05-04T16:28:36.948Z,1.00
2023-05-04T16:33:41.520Z,1.10
2023-05-04T16:43:50.261Z,1.20
2023-05-04T16:48:54.747Z,1.10
2023-05-04T16:59:02.862Z,1.30
2023-05-04T17:04:06.430Z,1.20
2023-05-04T17:09:11.359Z,1.15
2023-05-04T17:14:14.979Z,1.40
2023-05-04T17:19:18.451Z,1.30
2023-05-04T17:24:23.313Z,1.25
2023-05-04T17:29:26.858Z,2.50
2023-05-04T17:34:30.302Z,1.20
2023-05-04T17:39:35.249Z,1.30
2023-05-04T17:44:38.745Z,1.20
2023-05-04T17:49:42.193Z,1.13
2023-05-04T17:54:47.126Z,1.20
2023-05-04T17:59:50.648Z,1.30
2023-05-04T18:04:54.108Z,1.30
2023-05-04T18:09:59.028Z,1.20
2023-05-04T18:15:02.583Z,1.30
2023-05-04T18:20:10.334Z,1.20
2023-05-04T18:25:16.370Z,3.38
2023-05-04T18:30:20.206Z,2.67
2023-05-04T18:35:23.718Z,2.53
2023-05-04T18:40:28.594Z,2.83
2023-05-04T18:45:32.183Z,2.10
2023-05-04T18:50:36.200Z,2.20
2023-05-04T18:55:41.108Z,2.20
2023-05-04T19:00:46.474Z,2.50
2023-05-04T19:05:50.066Z,2.67
2023-05-04T19:10:59.241Z,2.20
2023-05-04T19:16:02.806Z,1.85
2023-05-04T19:21:06.920Z,2.40
2023-05-04T19:26:11.794Z,1.90
2023-05-04T19:31:15.755Z,1.90
2023-05-04T19:36:19.274Z,2.87
2023-05-04T19:41:24.178Z,1.85
2023-05-04T19:51:31.578Z,2.80
2023-05-04T19:56:36.547Z,2.92
2023-05-04T20:01:39.997Z,2.22
2023-05-04T20:06:43.440Z,2.97
2023-05-04T20:11:48.480Z,2.50
2023-05-04T20:16:52.728Z,2.80
2023-05-04T20:21:56.515Z,2.22
2023-05-04T20:27:01.467Z,2.42
2023-05-04T20:32:05.832Z,2.40
2023-05-04T20:37:09.625Z,2.80
2023-05-04T20:42:14.689Z,2.15
2023-05-04T20:47:18.631Z,2.80
2023-05-04T20:52:22.272Z,2.70
2023-05-04T20:57:27.261Z,2.45
2023-05-04T21:02:31.349Z,2.22
2023-05-04T21:07:34.934Z,1.90
2023-05-04T21:12:39.880Z,2.38
2023-05-04T21:17:43.396Z,2.20
2023-05-04T21:22:46.966Z,2.65
2023-05-04T21:27:51.962Z,2.53
2023-05-04T21:32:55.491Z,2.85
2023-05-04T21:37:59.870Z,2.25
2023-05-04T21:43:04.726Z,2.75
2023-05-04T21:48:08.448Z,2.10
2023-05-04T21:53:11.956Z,2.72
2023-05-04T21:58:17.384Z,2.67
2023-05-04T22:03:21.122Z,2.38
2023-05-04T22:08:24.836Z,2.60
2023-05-04T22:13:29.948Z,3.38
2023-05-04T22:18:33.441Z,3.50
2023-05-04T22:23:37.312Z,4.45
2023-05-04T22:28:42.179Z,4.30
2023-05-04T22:38:48.679Z,3.20
2023-05-04T22:43:53.488Z,3.25
2023-05-04T22:48:56.956Z,2.72
2023-05-04T22:54:00.368Z,2.90
2023-05-04T22:59:06.411Z,2.72
2023-05-04T23:04:12.767Z,2.83
2023-05-04T23:09:16.634Z,2.80
2023-05-04T23:14:21.851Z,3.53
2023-05-04T23:19:25.305Z,3.42
2023-05-04T23:24:28.774Z,3.10
2023-05-04T23:29:33.700Z,3.67
2023-05-04T23:39:40.294Z,3.30
2023-05-04T23:44:45.101Z,3.30
2023-05-04T23:49:48.608Z,3.00
2023-05-04T23:54:54.723Z,3.05
2023-05-04T23:59:59.505Z,3.40
